createdAt,value
2023-02-26T00:02:08.963Z,98875.53
2023-02-26T00:05:13.380Z,98878.36
2023-02-26T00:08:16.825Z,98872.61
2023-02-26T00:11:23.087Z,98861.95
2023-02-26T00:14:29.560Z,98864.06
2023-02-26T00:17:53.266Z,98863.14
2023-02-26T00:20:59.060Z,98865.13
2023-02-26T00:24:05.240Z,98852.98
2023-02-26T00:27:09.987Z,98864.25
2023-02-26T00:30:15.244Z,98866.06
2023-02-26T00:33:19.908Z,98880.95
2023-02-26T00:36:31.628Z,98876.98
2023-02-26T00:39:57.317Z,98881.83
2023-02-26T00:43:03.613Z,98885.22
2023-02-26T00:46:21.143Z,98886.27
2023-02-26T00:49:46.274Z,98884.38
2023-02-26T00:53:17.604Z,98881.71
2023-02-26T00:56:22.931Z,98891.18
2023-02-26T00:59:27.251Z,98890.59
2023-02-26T01:02:32.116Z,98893.78
2023-02-26T01:05:37.244Z,98887.34
2023-02-26T01:08:51.691Z,98877.23
2023-02-26T01:11:58.741Z,98881.86
2023-02-26T01:15:04.145Z,98889.50
2023-02-26T01:18:25.021Z,98896.82
2023-02-26T01:21:36.345Z,98899.77
2023-02-26T01:24:33.873Z,98907.36
2023-02-26T01:27:39.421Z,98915.16
2023-02-26T01:30:44.978Z,98911.11
2023-02-26T01:33:58.932Z,98906.11
2023-02-26T01:37:13.132Z,98908.67
2023-02-26T01:40:41.056Z,98915.89
2023-02-26T01:44:04.665Z,98916.12
2023-02-26T01:47:21.155Z,98910.87
2023-02-26T01:50:31.215Z,98913.15
2023-02-26T01:53:40.074Z,98914.08
2023-02-26T01:56:44.892Z,98920.45
2023-02-26T01:59:52.405Z,98932.33
2023-02-26T02:02:57.773Z,98940.66
2023-02-26T02:06:09.041Z,98947.26
2023-02-26T02:09:12.797Z,98938.77
2023-02-26T02:12:22.424Z,98951.43
2023-02-26T02:15:43.122Z,98947.23
2023-02-26T02:19:13.713Z,98948.53
2023-02-26T02:22:35.889Z,98954.71
2023-02-26T02:26:02.700Z,98959.04
2023-02-26T02:29:31.800Z,98958.34
2023-02-26T02:33:05.634Z,98960.62
2023-02-26T02:36:20.012Z,98952.73
2023-02-26T02:39:28.628Z,98940.84
2023-02-26T02:42:36.857Z,98943.55
2023-02-26T02:45:59.224Z,98950.23
2023-02-26T02:49:11.096Z,98954.47
2023-02-26T02:52:27.923Z,98948.74
2023-02-26T02:55:41.762Z,98950.06
2023-02-26T02:58:48.521Z,98948.17
2023-02-26T03:01:53.712Z,98944.81
2023-02-26T03:04:59.014Z,98940.13
2023-02-26T03:08:09.809Z,98937.11
2023-02-26T03:11:16.754Z,98943.09
2023-02-26T03:14:23.029Z,98941.13
2023-02-26T03:17:37.213Z,98935.23
2023-02-26T03:20:48.932Z,98936.91
2023-02-26T03:24:13.914Z,98938.71
2023-02-26T03:27:41.031Z,98969.73
2023-02-26T03:31:07.146Z,98983.77
2023-02-26T03:34:21.356Z,98991.36
2023-02-26T03:37:38.203Z,99005.00
2023-02-26T03:40:45.330Z,99016.96
2023-02-26T03:43:54.184Z,99025.19
2023-02-26T03:47:03.589Z,99036.17
2023-02-26T03:50:13.824Z,99045.12
2023-02-26T03:53:22.617Z,99055.34
2023-02-26T03:56:47.078Z,99044.73
2023-02-26T03:59:47.655Z,99050.78
2023-02-26T04:03:25.627Z,99057.14
2023-02-26T04:06:29.865Z,99056.42
2023-02-26T04:09:34.373Z,99060.28
2023-02-26T04:12:39.181Z,99063.01
2023-02-26T04:15:43.869Z,99078.26
2023-02-26T04:18:49.178Z,99082.12
2023-02-26T04:21:54.012Z,99085.55
2023-02-26T04:24:58.622Z,99117.77
2023-02-26T04:28:04.375Z,99136.58
2023-02-26T04:31:09.751Z,99147.04
2023-02-26T04:34:14.657Z,99161.09
2023-02-26T04:37:20.099Z,99164.38
2023-02-26T04:40:25.082Z,99161.39
2023-02-26T04:43:30.149Z,99157.90
2023-02-26T04:46:46.959Z,99149.63
2023-02-26T04:49:50.984Z,99143.30
2023-02-26T04:52:56.659Z,99137.89
2023-02-26T04:56:02.195Z,99155.87
2023-02-26T04:59:07.984Z,99175.99
2023-02-26T05:02:13.055Z,99183.59
2023-02-26T05:05:17.965Z,99186.91
2023-02-26T05:08:16.605Z,99196.23
2023-02-26T05:11:22.483Z,99201.84
2023-02-26T05:14:26.916Z,99190.98
2023-02-26T05:17:31.929Z,99198.06
2023-02-26T05:20:36.396Z,99191.09
2023-02-26T05:23:40.531Z,99182.80
2023-02-26T05:26:45.015Z,99176.78
2023-02-26T05:29:51.372Z,99178.47
2023-02-26T05:32:56.469Z,99186.63
2023-02-26T05:36:00.771Z,99185.75
2023-02-26T05:39:06.047Z,99191.50
2023-02-26T05:42:10.865Z,99181.12
2023-02-26T05:45:14.449Z,99184.42
2023-02-26T05:48:18.942Z,99192.82
2023-02-26T05:51:23.480Z,99203.20
2023-02-26T05:54:27.890Z,99196.13
2023-02-26T05:57:32.455Z,99210.66
2023-02-26T06:00:37.440Z,99223.34
2023-02-26T06:03:42.781Z,99230.61
2023-02-26T06:06:47.501Z,99242.24
2023-02-26T06:09:51.910Z,99259.59
2023-02-26T06:12:58.046Z,99268.47
2023-02-26T06:16:05.208Z,99274.64
2023-02-26T06:19:10.159Z,99273.91
2023-02-26T06:22:15.350Z,99260.13
2023-02-26T06:25:20.258Z,99273.27
2023-02-26T06:28:24.842Z,99274.38
2023-02-26T06:31:29.581Z,99257.84
2023-02-26T06:34:33.669Z,99274.05
2023-02-26T06:37:37.998Z,99278.50
2023-02-26T06:40:42.212Z,99289.55
2023-02-26T06:43:46.468Z,99271.33
2023-02-26T06:46:52.078Z,99282.23
2023-02-26T06:49:57.070Z,99292.08
2023-02-26T06:53:02.341Z,99292.57
2023-02-26T06:56:06.791Z,99318.86
2023-02-26T06:59:10.569Z,99318.89
2023-02-26T07:02:16.666Z,99325.70
2023-02-26T07:05:17.158Z,99356.55
2023-02-26T07:08:23.438Z,99345.22
2023-02-26T07:11:27.476Z,99365.12
2023-02-26T07:14:32.715Z,99373.63
2023-02-26T07:17:37.602Z,99348.37
2023-02-26T07:20:42.361Z,99358.22
2023-02-26T07:23:45.838Z,99371.39
2023-02-26T07:26:51.170Z,99372.69
2023-02-26T07:29:56.710Z,99383.29
2023-02-26T07:33:01.404Z,99374.44
2023-02-26T07:36:05.808Z,99390.42
2023-02-26T07:39:10.843Z,99385.36
2023-02-26T07:42:18.010Z,99398.18
2023-02-26T07:45:26.179Z,99395.88
2023-02-26T07:48:32.705Z,99388.30
2023-02-26T07:51:36.298Z,99395.17
2023-02-26T07:54:40.631Z,99387.30
2023-02-26T07:57:44.954Z,99406.87
2023-02-26T08:00:49.172Z,99405.39
2023-02-26T08:03:58.118Z,99415.22
2023-02-26T08:07:00.104Z,99416.87
2023-02-26T08:10:05.182Z,99426.01
2023-02-26T08:13:23.832Z,99409.20
2023-02-26T08:16:31.043Z,99429.37
2023-02-26T08:19:35.874Z,99421.13
2023-02-26T08:22:41.003Z,99417.62
2023-02-26T08:25:47.012Z,99416.02
2023-02-26T08:28:52.753Z,99419.08
2023-02-26T08:31:52.019Z,99419.84
2023-02-26T08:35:01.974Z,99431.29
2023-02-26T08:38:06.406Z,99435.86
2023-02-26T08:41:15.646Z,99438.11
2023-02-26T08:44:21.503Z,99439.44
2023-02-26T08:47:29.252Z,99465.98
2023-02-26T08:54:08.194Z,99470.30
2023-02-26T08:57:12.809Z,99473.30
2023-02-26T09:00:19.575Z,99472.09
2023-02-26T09:03:22.738Z,99485.25
2023-02-26T09:06:27.712Z,99493.77
2023-02-26T09:09:32.481Z,99494.64
2023-02-26T09:12:37.427Z,99499.94
2023-02-26T09:15:41.751Z,99496.48
2023-02-26T09:18:51.865Z,99500.91
2023-02-26T09:21:57.397Z,99515.06
2023-02-26T09:25:04.188Z,99514.02
2023-02-26T09:28:11.070Z,99523.77
2023-02-26T09:31:15.857Z,99511.98
2023-02-26T09:34:22.302Z,99509.77
2023-02-26T09:37:27.791Z,99515.55
2023-02-26T09:40:40.848Z,99519.96
2023-02-26T09:43:51.016Z,99534.61
2023-02-26T09:47:20.777Z,99527.39
2023-02-26T09:50:29.333Z,99518.20
2023-02-26T09:53:41.001Z,99524.27
2023-02-26T09:56:48.179Z,99515.05
2023-02-26T09:59:53.083Z,99519.94
2023-02-26T10:03:26.385Z,99513.84
2023-02-26T10:06:46.373Z,99521.31
2023-02-26T10:10:12.818Z,99516.81
2023-02-26T10:13:17.855Z,99500.95
2023-02-26T10:16:32.455Z,99500.48
2023-02-26T10:19:41.303Z,99513.92
2023-02-26T10:22:51.400Z,99526.33
2023-02-26T10:25:58.539Z,99528.28
2023-02-26T10:29:26.769Z,99528.73
2023-02-26T10:32:38.442Z,99521.23
2023-02-26T10:35:45.374Z,99525.12
2023-02-26T10:38:51.508Z,99528.61
2023-02-26T10:41:59.040Z,99517.57
2023-02-26T10:45:13.739Z,99513.08
2023-02-26T10:48:36.601Z,99530.14
2023-02-26T10:51:44.648Z,99542.58
2023-02-26T10:54:50.419Z,99547.95
2023-02-26T10:57:57.110Z,99546.44
2023-02-26T11:01:04.043Z,99557.15
2023-02-26T11:04:16.507Z,99549.36
2023-02-26T11:07:21.768Z,99542.34
2023-02-26T11:10:29.650Z,99530.53
2023-02-26T11:13:37.691Z,99536.08
2023-02-26T11:16:42.528Z,99518.78
2023-02-26T11:19:54.863Z,99517.78
2023-02-26T11:23:04.348Z,99524.04
2023-02-26T11:26:15.214Z,99518.69
2023-02-26T11:29:20.134Z,99517.72
2023-02-26T11:32:30.969Z,99515.39
2023-02-26T11:35:38.019Z,99518.59
2023-02-26T11:38:43.324Z,99518.73
2023-02-26T11:41:48.698Z,99518.13
2023-02-26T11:44:56.181Z,99525.08
2023-02-26T11:48:02.052Z,99541.42
2023-02-26T11:51:10.276Z,99552.90
2023-02-26T11:54:15.486Z,99565.79
2023-02-26T11:57:24.411Z,99567.55
2023-02-26T12:00:34.762Z,99582.69
2023-02-26T12:03:43.277Z,99596.22
2023-02-26T12:06:49.174Z,99601.35
2023-02-26T12:09:54.667Z,99603.94
2023-02-26T12:13:08.595Z,99617.95
2023-02-26T12:16:17.279Z,99612.94
2023-02-26T12:19:26.628Z,99621.38
2023-02-26T12:22:43.717Z,99632.46
2023-02-26T12:25:58.053Z,99636.39
2023-02-26T12:29:41.701Z,99642.31
2023-02-26T12:32:58.516Z,99644.84
2023-02-26T12:36:10.566Z,99651.47
2023-02-26T12:39:29.036Z,99655.02
2023-02-26T12:42:52.094Z,99657.72
2023-02-26T12:46:19.365Z,99657.69
2023-02-26T12:49:52.452Z,99663.22
2023-02-26T12:53:17.982Z,99666.14
2023-02-26T12:56:47.191Z,99668.16
2023-02-26T13:00:19.435Z,99665.05
2023-02-26T13:03:45.395Z,99663.23
2023-02-26T13:07:05.927Z,99654.78
2023-02-26T13:10:20.106Z,99650.98
2023-02-26T13:13:33.331Z,99660.91
2023-02-26T13:17:01.588Z,99653.24
2023-02-26T13:20:05.237Z,99644.02
2023-02-26T13:23:16.599Z,99644.92
2023-02-26T13:26:23.008Z,99641.48
2023-02-26T13:29:29.934Z,99632.00
2023-02-26T13:32:36.458Z,99627.90
2023-02-26T13:35:49.520Z,99618.22
2023-02-26T13:39:08.344Z,99618.91
2023-02-26T13:42:34.508Z,99615.67
2023-02-26T13:46:00.258Z,99617.03
2023-02-26T13:49:15.209Z,99613.66
2023-02-26T13:52:12.832Z,99613.59
2023-02-26T13:55:19.195Z,99601.25
2023-02-26T13:58:36.982Z,99592.05
2023-02-26T14:02:02.568Z,99593.33
2023-02-26T14:05:03.265Z,99613.28
2023-02-26T14:08:11.380Z,99618.33
2023-02-26T14:11:20.019Z,99629.31
2023-02-26T14:14:33.139Z,99634.81
2023-02-26T14:17:47.081Z,99647.53
2023-02-26T14:20:52.876Z,99649.20
2023-02-26T14:23:59.011Z,99638.48
2023-02-26T14:27:05.800Z,99627.58
2023-02-26T14:30:22.770Z,99618.91
2023-02-26T14:33:32.163Z,99605.36
2023-02-26T14:36:39.529Z,99590.92
2023-02-26T14:39:47.832Z,99577.86
2023-02-26T14:42:55.604Z,99571.06
2023-02-26T14:45:59.527Z,99561.88
2023-02-26T14:49:04.676Z,99558.13
2023-02-26T14:52:16.245Z,99559.83
2023-02-26T14:55:38.101Z,99562.55
2023-02-26T14:59:00.958Z,99573.60
2023-02-26T15:02:28.212Z,99578.34
2023-02-26T15:05:48.213Z,99580.55
2023-02-26T15:09:09.206Z,99605.38
2023-02-26T15:12:23.385Z,99616.59
2023-02-26T15:15:48.588Z,99614.71
2023-02-26T15:19:15.479Z,99614.19
2023-02-26T15:22:28.066Z,99623.89
2023-02-26T15:25:48.040Z,99645.81
2023-02-26T15:28:55.480Z,99645.48
2023-02-26T15:32:12.631Z,99642.09
2023-02-26T15:35:34.186Z,99638.33
2023-02-26T15:38:38.869Z,99641.90
2023-02-26T15:41:44.318Z,99657.70
2023-02-26T15:44:56.966Z,99670.10
2023-02-26T15:47:54.809Z,99670.61
2023-02-26T15:51:01.048Z,99686.06
2023-02-26T15:54:02.544Z,99705.76
2023-02-26T15:57:07.080Z,99727.88
2023-02-26T16:00:23.301Z,99722.60
2023-02-26T16:03:29.202Z,99731.31
2023-02-26T16:06:40.224Z,99747.63
2023-02-26T16:09:49.502Z,99753.57
2023-02-26T16:12:56.424Z,99765.80
2023-02-26T16:16:02.157Z,99782.59
2023-02-26T16:19:08.082Z,99772.87
2023-02-26T16:22:13.103Z,99773.53
2023-02-26T16:25:25.469Z,99760.59
2023-02-26T16:28:32.653Z,99767.01
2023-02-26T16:31:39.891Z,99749.66
2023-02-26T16:35:05.393Z,99753.85
2023-02-26T16:38:09.613Z,99753.32
2023-02-26T16:41:23.211Z,99757.85
2023-02-26T16:44:46.964Z,99743.42
2023-02-26T16:47:51.167Z,99755.95
2023-02-26T16:50:57.341Z,99762.02
2023-02-26T16:54:05.270Z,99762.16
2023-02-26T16:57:12.630Z,99770.84
2023-02-26T17:00:21.686Z,99750.98
2023-02-26T17:03:33.923Z,99747.06
2023-02-26T17:06:38.748Z,99756.93
2023-02-26T17:09:50.499Z,99749.58
2023-02-26T17:13:00.136Z,99738.41
2023-02-26T17:15:59.398Z,99757.92
2023-02-26T17:19:03.200Z,99770.14
2023-02-26T17:22:10.510Z,99781.30
2023-02-26T17:25:14.363Z,99798.98
2023-02-26T17:28:12.436Z,99816.15
2023-02-26T17:31:04.228Z,99823.45
2023-02-26T17:34:09.714Z,99813.94
2023-02-26T17:37:14.789Z,99832.78
2023-02-26T17:40:20.986Z,99827.24
2023-02-26T17:43:25.730Z,99839.73
2023-02-26T17:46:30.053Z,99839.09
2023-02-26T17:49:34.370Z,99823.69
2023-02-26T17:52:33.773Z,99813.47
2023-02-26T17:55:37.659Z,99801.59
2023-02-26T17:58:47.985Z,99797.48
2023-02-26T18:01:53.253Z,99802.71
2023-02-26T18:04:58.923Z,99797.25
2023-02-26T18:08:03.011Z,99802.64
2023-02-26T18:11:09.314Z,99807.52
2023-02-26T18:14:13.985Z,99808.46
2023-02-26T18:17:11.551Z,99804.59
2023-02-26T18:20:19.449Z,99820.67
2023-02-26T18:23:26.064Z,99820.25
2023-02-26T18:26:33.917Z,99811.27
2023-02-26T18:29:38.902Z,99808.55
2023-02-26T18:32:43.933Z,99798.51
2023-02-26T18:35:49.586Z,99803.20
2023-02-26T18:38:53.740Z,99851.34
2023-02-26T18:41:53.380Z,99851.80
2023-02-26T18:44:58.045Z,99852.48
2023-02-26T18:48:02.051Z,99857.78
2023-02-26T18:51:07.108Z,99861.52
2023-02-26T18:54:10.750Z,99849.14
2023-02-26T18:57:16.280Z,99850.45
2023-02-26T19:00:24.413Z,99850.38
2023-02-26T19:03:29.696Z,99855.13
2023-02-26T19:06:35.549Z,99851.59
2023-02-26T19:09:39.216Z,99852.38
2023-02-26T19:12:43.431Z,99862.63
2023-02-26T19:15:48.269Z,99862.12
2023-02-26T19:18:52.735Z,99857.55
2023-02-26T19:21:57.256Z,99860.30
2023-02-26T19:25:01.661Z,99855.50
2023-02-26T19:28:07.102Z,99860.01
2023-02-26T19:31:12.242Z,99861.27
2023-02-26T19:34:17.548Z,99858.22
2023-02-26T19:37:21.911Z,99859.36
2023-02-26T19:40:27.180Z,99862.57
2023-02-26T19:43:32.292Z,99871.00
2023-02-26T19:46:36.164Z,99861.16
2023-02-26T19:49:41.397Z,99852.13
2023-02-26T19:52:46.886Z,99863.31
2023-02-26T19:55:52.216Z,99870.07
2023-02-26T19:58:56.385Z,99867.66
2023-02-26T20:02:01.191Z,99874.94
2023-02-26T20:05:05.964Z,99874.72
2023-02-26T20:08:10.435Z,99888.88
2023-02-26T20:11:14.717Z,99887.52
2023-02-26T20:14:20.060Z,99899.55
2023-02-26T20:17:24.579Z,99871.66
2023-02-26T20:20:31.882Z,99867.31
2023-02-26T20:23:36.126Z,99886.56
2023-02-26T20:26:41.123Z,99886.56
2023-02-26T20:29:47.291Z,99871.61
2023-02-26T20:32:52.244Z,99883.61
2023-02-26T20:35:58.249Z,99882.95
2023-02-26T20:39:03.251Z,99883.80
2023-02-26T20:42:07.873Z,99896.39
2023-02-26T20:45:12.152Z,99910.00
2023-02-26T20:48:16.512Z,99912.66
2023-02-26T20:51:22.827Z,99919.81
2023-02-26T20:54:30.146Z,99926.16
2023-02-26T20:57:27.166Z,99931.13
2023-02-26T21:00:32.866Z,99935.17
2023-02-26T21:03:38.332Z,99933.62
2023-02-26T21:06:41.986Z,99936.04
2023-02-26T21:09:45.749Z,99942.25
2023-02-26T21:12:49.954Z,99959.08
2023-02-26T21:15:54.253Z,99969.55
2023-02-26T21:18:58.562Z,99969.82
2023-02-26T21:22:03.373Z,99973.83
2023-02-26T21:25:06.866Z,99975.69
2023-02-26T21:28:12.141Z,99976.09
2023-02-26T21:31:16.374Z,99976.38
2023-02-26T21:34:33.247Z,99982.75
2023-02-26T21:37:25.702Z,99985.81
2023-02-26T21:40:31.742Z,99992.64
2023-02-26T21:43:37.234Z,100009.42
2023-02-26T21:46:42.396Z,100007.78
2023-02-26T21:49:46.881Z,100003.20
2023-02-26T21:52:52.189Z,100004.97
2023-02-26T21:55:57.715Z,100007.45
2023-02-26T21:59:03.164Z,100003.20
2023-02-26T22:02:08.436Z,100003.43
2023-02-26T22:05:12.427Z,100011.47
2023-02-26T22:08:17.392Z,100006.84
2023-02-26T22:11:21.794Z,100006.27
2023-02-26T22:14:26.045Z,100018.40
2023-02-26T22:17:31.344Z,100030.06
2023-02-26T22:20:37.043Z,100025.33
2023-02-26T22:23:41.526Z,100027.34
2023-02-26T22:26:46.250Z,100028.83
2023-02-26T22:29:50.797Z,100034.16
2023-02-26T22:32:55.547Z,100040.52
2023-02-26T22:35:59.969Z,100052.34
2023-02-26T22:39:04.126Z,100046.42
2023-02-26T22:42:09.279Z,100041.22
2023-02-26T22:45:14.023Z,100038.35
2023-02-26T22:48:19.254Z,100046.73
2023-02-26T22:51:24.036Z,100051.58
2023-02-26T22:54:27.719Z,100058.36
2023-02-26T22:57:32.826Z,100061.69
2023-02-26T23:00:37.747Z,100053.37
2023-02-26T23:03:42.990Z,100060.49
2023-02-26T23:06:41.029Z,100057.95
2023-02-26T23:09:47.538Z,100047.47
2023-02-26T23:12:53.634Z,100050.95
2023-02-26T23:15:59.557Z,100061.64
2023-02-26T23:19:04.909Z,100063.58
2023-02-26T23:22:09.353Z,100065.72
2023-02-26T23:25:15.080Z,100064.66
2023-02-26T23:28:20.554Z,100073.92
2023-02-26T23:31:26.575Z,100075.00
2023-02-26T23:34:31.164Z,100074.34
2023-02-26T23:37:36.123Z,100073.84
2023-02-26T23:40:41.005Z,100078.13
2023-02-26T23:43:45.433Z,100068.00
2023-02-26T23:46:51.027Z,100074.15
2023-02-26T23:49:55.780Z,100079.84
2023-02-26T23:53:01.665Z,100077.71
2023-02-26T23:56:05.823Z,100091.53
2023-02-26T23:59:09.817Z,100089.32
